createdAt,value
2022-11-28T00:01:19.471Z,13.13
2022-11-28T00:03:47.069Z,15.60
2022-11-28T00:06:14.803Z,12.43
2022-11-28T00:08:42.406Z,15.13
2022-11-28T00:11:11.678Z,12.55
2022-11-28T00:13:39.138Z,14.13
2022-11-28T00:16:08.399Z,14.25
2022-11-28T00:18:35.968Z,15.50
2022-11-28T00:21:06.621Z,13.80
2022-11-28T00:23:34.176Z,15.63
2022-11-28T00:26:04.439Z,13.77
2022-11-28T00:28:32.022Z,15.32
2022-11-28T00:30:59.387Z,14.70
2022-11-28T00:33:26.823Z,15.40
2022-11-28T00:36:03.666Z,16.77
2022-11-28T00:38:31.359Z,15.75
2022-11-28T00:41:00.675Z,16.10
2022-11-28T00:43:28.492Z,17.08
2022-11-28T00:45:55.964Z,16.65
2022-11-28T00:48:24.224Z,15.77
2022-11-28T00:50:51.933Z,18.13
2022-11-28T00:53:19.637Z,15.10
2022-11-28T00:55:47.160Z,16.58
2022-11-28T00:58:14.667Z,19.38
2022-11-28T01:00:44.265Z,16.67
2022-11-28T01:03:11.413Z,26.65
2022-11-28T01:05:43.815Z,23.55
2022-11-28T01:08:11.419Z,40.85
2022-11-28T01:10:42.326Z,28.15
2022-11-28T01:13:10.273Z,93.13
2022-11-28T01:15:41.220Z,28.08
2022-11-28T01:18:09.021Z,34.88
2022-11-28T01:20:36.585Z,42.95
2022-11-28T01:23:04.183Z,87.57
2022-11-28T01:25:31.507Z,62.03
2022-11-28T01:27:58.803Z,39.95
2022-11-28T01:30:26.130Z,54.38
2022-11-28T01:32:53.336Z,102.45
2022-11-28T01:35:20.591Z,102.28
2022-11-28T01:37:47.794Z,128.43
2022-11-28T01:40:16.939Z,100.25
2022-11-28T01:42:44.191Z,97.60
2022-11-28T01:45:16.114Z,104.78
2022-11-28T01:47:44.233Z,69.20
2022-11-28T01:50:13.058Z,167.10
2022-11-28T01:52:44.539Z,106.07
2022-11-28T01:55:15.041Z,121.53
2022-11-28T01:57:43.451Z,100.65
2022-11-28T02:00:17.135Z,107.75
2022-11-28T02:03:10.681Z,56.50
2022-11-28T02:05:38.643Z,107.82
2022-11-28T02:08:06.709Z,36.85
2022-11-28T02:11:11.763Z,69.68
2022-11-28T02:13:48.821Z,51.00
2022-11-28T02:16:17.040Z,158.90
2022-11-28T02:18:55.035Z,62.40
2022-11-28T02:21:28.871Z,78.28
2022-11-28T02:24:16.606Z,36.35
2022-11-28T02:26:45.799Z,39.30
2022-11-28T02:29:34.467Z,156.30
2022-11-28T02:32:11.315Z,114.82
2022-11-28T02:35:03.750Z,42.15
2022-11-28T02:37:36.328Z,36.63
2022-11-28T02:40:07.886Z,97.07
2022-11-28T02:42:42.595Z,35.72
2022-11-28T02:45:19.029Z,35.03
2022-11-28T02:47:51.493Z,37.67
2022-11-28T02:50:24.827Z,59.78
2022-11-28T02:52:57.802Z,41.47
2022-11-28T02:55:26.148Z,32.95
2022-11-28T02:57:54.905Z,45.85
2022-11-28T03:00:25.980Z,39.63
2022-11-28T03:03:20.039Z,81.28
2022-11-28T03:06:11.907Z,47.70
2022-11-28T03:08:43.542Z,41.22
2022-11-28T03:11:33.888Z,33.40
2022-11-28T03:14:33.942Z,36.35
2022-11-28T03:17:13.772Z,48.42
2022-11-28T03:19:49.164Z,36.03
2022-11-28T03:22:46.630Z,30.45
2022-11-28T03:25:41.022Z,34.83
2022-11-28T03:28:21.849Z,58.13
2022-11-28T03:30:54.089Z,34.60
2022-11-28T03:33:24.070Z,34.63
2022-11-28T03:35:58.462Z,33.25
2022-11-28T03:38:34.074Z,43.30
2022-11-28T03:41:10.343Z,31.88
2022-11-28T03:43:43.162Z,34.08
2022-11-28T03:46:16.203Z,60.58
2022-11-28T03:48:47.592Z,40.08
2022-11-28T03:51:35.295Z,37.55
2022-11-28T03:54:28.206Z,33.05
2022-11-28T03:57:11.799Z,36.78
2022-11-28T03:59:47.026Z,41.08
2022-11-28T04:02:22.157Z,36.70
2022-11-28T04:05:11.982Z,37.10
2022-11-28T04:07:39.364Z,33.33
2022-11-28T04:10:12.683Z,40.58
2022-11-28T04:13:07.122Z,38.10
2022-11-28T04:15:57.678Z,29.20
2022-11-28T04:18:31.110Z,36.38
2022-11-28T04:21:10.135Z,39.03
2022-11-28T04:23:40.238Z,34.28
2022-11-28T04:26:18.394Z,34.75
2022-11-28T04:28:48.040Z,33.33
2022-11-28T04:31:17.819Z,36.25
2022-11-28T04:33:50.064Z,33.83
2022-11-28T04:36:20.550Z,34.22
2022-11-28T04:38:56.260Z,37.42
2022-11-28T04:41:43.606Z,34.40
2022-11-28T04:44:27.061Z,35.33
2022-11-28T04:46:56.779Z,32.28
2022-11-28T04:49:26.552Z,36.53
2022-11-28T04:52:22.116Z,32.03
2022-11-28T04:55:09.228Z,33.95
2022-11-28T04:57:40.979Z,31.48
2022-11-28T05:00:12.639Z,31.63
2022-11-28T05:02:42.173Z,31.42
2022-11-28T05:05:16.115Z,32.70
2022-11-28T05:07:43.449Z,26.85
2022-11-28T05:10:12.353Z,34.45
2022-11-28T05:12:39.915Z,34.33
2022-11-28T05:15:08.317Z,35.70
2022-11-28T05:17:41.768Z,38.13
2022-11-28T05:20:09.777Z,39.53
2022-11-28T05:22:36.842Z,35.20
2022-11-28T05:25:04.495Z,33.05
2022-11-28T05:27:31.612Z,29.67
2022-11-28T05:29:58.734Z,34.45
2022-11-28T05:32:26.255Z,28.45
2022-11-28T05:34:53.832Z,30.13
2022-11-28T05:37:21.323Z,27.63
2022-11-28T05:39:48.789Z,31.80
2022-11-28T05:42:16.458Z,30.70
2022-11-28T05:44:43.971Z,30.88
2022-11-28T05:47:11.449Z,29.60
2022-11-28T05:49:39.160Z,30.20
2022-11-28T05:52:06.645Z,30.00
2022-11-28T05:54:34.264Z,27.13
2022-11-28T05:57:02.931Z,27.08
2022-11-28T05:59:30.024Z,32.15
2022-11-28T06:01:57.330Z,29.70
2022-11-28T06:04:24.453Z,27.42
2022-11-28T06:06:52.487Z,30.13
2022-11-28T06:09:24.505Z,29.33
2022-11-28T06:11:53.330Z,30.27
2022-11-28T06:14:20.777Z,29.45
2022-11-28T06:16:47.954Z,27.40
2022-11-28T06:19:15.726Z,30.98
2022-11-28T06:21:42.942Z,29.35
2022-11-28T06:24:10.848Z,32.03
2022-11-28T06:26:38.023Z,32.97
2022-11-28T06:29:05.347Z,29.60
2022-11-28T06:31:32.722Z,31.67
2022-11-28T06:34:00.002Z,28.50
2022-11-28T06:36:27.596Z,28.77
2022-11-28T06:38:54.810Z,28.42
2022-11-28T06:41:23.139Z,29.30
2022-11-28T06:43:50.542Z,31.50
2022-11-28T06:46:20.137Z,27.15
2022-11-28T06:48:48.768Z,28.27
2022-11-28T06:51:19.539Z,32.08
2022-11-28T06:53:46.883Z,33.50
2022-11-28T06:56:18.264Z,28.98
2022-11-28T06:58:46.502Z,26.58
2022-11-28T07:01:20.421Z,31.33
2022-11-28T07:03:48.504Z,28.60
2022-11-28T07:06:17.868Z,27.83
2022-11-28T07:08:45.117Z,31.08
2022-11-28T07:11:14.288Z,29.13
2022-11-28T07:13:42.598Z,29.42
2022-11-28T07:16:15.107Z,30.85
2022-11-28T07:18:42.703Z,29.77
2022-11-28T07:21:10.251Z,27.13
2022-11-28T07:23:37.942Z,25.48
2022-11-28T07:26:05.804Z,27.55
2022-11-28T07:28:34.075Z,28.80
2022-11-28T07:31:11.081Z,26.73
2022-11-28T07:33:39.725Z,27.17
2022-11-28T07:36:11.509Z,25.73
2022-11-28T07:38:38.825Z,27.60
2022-11-28T07:41:08.488Z,23.33
2022-11-28T07:43:36.147Z,24.85
2022-11-28T07:46:06.863Z,24.88
2022-11-28T07:48:35.017Z,24.08
2022-11-28T07:51:08.688Z,25.30
2022-11-28T07:53:36.993Z,24.40
2022-11-28T07:56:06.949Z,24.35
2022-11-28T07:58:35.380Z,24.20
2022-11-28T08:01:20.751Z,26.15
2022-11-28T08:03:48.635Z,25.58
2022-11-28T08:06:17.695Z,26.40
2022-11-28T08:08:47.338Z,25.13
2022-11-28T08:11:15.965Z,27.65
2022-11-28T08:13:43.783Z,23.42
2022-11-28T08:16:22.502Z,24.45
2022-11-28T08:18:51.271Z,23.90
2022-11-28T08:21:21.149Z,29.58
2022-11-28T08:23:48.210Z,25.70
2022-11-28T08:26:17.249Z,25.60
2022-11-28T08:28:44.386Z,28.15
2022-11-28T08:31:14.353Z,30.30
2022-11-28T08:33:42.048Z,27.60
2022-11-28T08:36:11.793Z,30.92
2022-11-28T08:38:39.473Z,28.67
2022-11-28T08:41:09.861Z,27.35
2022-11-28T08:43:38.354Z,27.38
2022-11-28T08:46:06.587Z,25.90
2022-11-28T08:48:35.576Z,23.75
2022-11-28T08:51:03.314Z,25.85
2022-11-28T08:53:30.558Z,27.98
2022-11-28T08:55:57.586Z,24.83
2022-11-28T08:58:24.660Z,23.40
2022-11-28T09:00:52.138Z,26.63
2022-11-28T09:03:20.596Z,27.10
2022-11-28T09:05:48.569Z,28.60
2022-11-28T09:08:18.222Z,30.23
2022-11-28T09:10:46.343Z,28.63
2022-11-28T09:13:14.671Z,26.58
2022-11-28T09:15:43.290Z,26.98
2022-11-28T09:18:13.079Z,24.67
2022-11-28T09:20:40.607Z,25.58
2022-11-28T09:23:09.088Z,24.13
2022-11-28T09:25:37.775Z,23.70
2022-11-28T09:28:05.303Z,27.75
2022-11-28T09:30:33.065Z,25.02
2022-11-28T09:33:00.270Z,22.05
2022-11-28T09:35:27.529Z,22.08
2022-11-28T09:37:54.763Z,22.30
2022-11-28T09:40:42.378Z,19.45
2022-11-28T09:43:18.776Z,21.92
2022-11-28T09:45:49.501Z,22.30
2022-11-28T09:48:25.230Z,23.40
2022-11-28T09:50:57.666Z,20.73
2022-11-28T09:53:34.534Z,22.08
2022-11-28T09:56:21.857Z,20.08
2022-11-28T09:58:55.543Z,22.88
2022-11-28T10:01:35.987Z,16.40
2022-11-28T10:04:29.894Z,21.63
2022-11-28T10:07:36.948Z,22.17
2022-11-28T10:10:24.017Z,21.55
2022-11-28T10:12:54.571Z,21.35
2022-11-28T10:15:41.639Z,23.20
2022-11-28T10:18:14.839Z,22.52
2022-11-28T10:20:45.815Z,22.85
2022-11-28T10:23:17.478Z,20.48
2022-11-28T10:25:54.235Z,23.58
2022-11-28T10:28:26.605Z,24.65
2022-11-28T10:31:09.913Z,26.23
2022-11-28T10:33:42.277Z,22.80
2022-11-28T10:36:16.913Z,21.98
2022-11-28T10:41:37.051Z,20.77
2022-11-28T10:44:29.421Z,24.52
2022-11-28T10:47:06.777Z,20.55
2022-11-28T10:49:36.032Z,24.65
2022-11-28T10:52:12.185Z,25.52
2022-11-28T10:54:59.226Z,23.65
2022-11-28T10:58:06.205Z,22.60
2022-11-28T11:00:35.560Z,26.17
2022-11-28T11:03:04.957Z,24.98
2022-11-28T11:05:34.138Z,29.30
2022-11-28T11:08:21.446Z,26.05
2022-11-28T11:10:56.157Z,23.85
2022-11-28T11:15:59.507Z,23.42
2022-11-28T11:18:30.906Z,24.38
2022-11-28T11:21:22.705Z,23.67
2022-11-28T11:24:11.046Z,30.05
2022-11-28T11:26:43.728Z,30.77
2022-11-28T11:29:35.725Z,30.38
2022-11-28T11:32:06.383Z,28.95
2022-11-28T11:34:43.276Z,25.35
2022-11-28T11:37:32.094Z,34.63
2022-11-28T11:40:01.174Z,30.58
2022-11-28T11:42:30.786Z,30.75
2022-11-28T11:45:18.765Z,30.58
2022-11-28T11:47:45.921Z,28.58
2022-11-28T11:50:19.213Z,35.70
2022-11-28T11:53:10.408Z,32.72
2022-11-28T11:55:48.462Z,34.78
2022-11-28T11:58:20.820Z,36.05
2022-11-28T12:00:48.074Z,37.00
2022-11-28T12:03:36.439Z,34.13
2022-11-28T12:06:27.366Z,31.30
2022-11-28T12:09:00.612Z,36.72
2022-11-28T12:11:32.278Z,39.25
2022-11-28T12:14:10.032Z,30.38
2022-11-28T12:20:31.786Z,33.58
2022-11-28T12:23:30.642Z,37.00
2022-11-28T12:26:21.014Z,34.13
2022-11-28T12:29:11.497Z,36.90
2022-11-28T12:31:42.192Z,36.40
2022-11-28T12:34:18.122Z,38.05
2022-11-28T12:37:01.642Z,35.92
2022-11-28T12:39:46.405Z,33.08
2022-11-28T12:42:22.625Z,40.10
2022-11-28T12:45:29.540Z,33.72
2022-11-28T12:48:16.468Z,30.90
2022-11-28T12:50:47.327Z,35.28
2022-11-28T12:53:34.521Z,35.22
2022-11-28T12:56:21.516Z,39.95
2022-11-28T12:59:20.174Z,36.17
2022-11-28T13:01:51.941Z,40.45
2022-11-28T13:04:20.533Z,38.30
2022-11-28T13:07:08.750Z,35.63
2022-11-28T13:09:45.579Z,32.72
2022-11-28T13:12:32.915Z,31.20
2022-11-28T13:15:09.897Z,29.75
2022-11-28T13:17:36.988Z,28.77
2022-11-28T13:20:14.224Z,28.83
2022-11-28T13:22:42.347Z,28.85
2022-11-28T13:25:19.254Z,26.85
2022-11-28T13:27:57.003Z,35.90
2022-11-28T13:30:27.257Z,29.00
2022-11-28T13:33:15.427Z,31.40
2022-11-28T13:35:45.767Z,26.80
2022-11-28T13:39:11.312Z,27.75
2022-11-28T13:42:16.184Z,30.98
2022-11-28T13:44:51.611Z,27.63
2022-11-28T13:47:32.338Z,30.77
2022-11-28T13:50:39.559Z,29.38
2022-11-28T13:53:06.620Z,30.90
2022-11-28T13:55:39.397Z,34.67
2022-11-28T13:58:29.561Z,32.05
2022-11-28T14:01:15.689Z,33.67
2022-11-28T14:04:01.573Z,30.98
2022-11-28T14:06:41.393Z,32.40
2022-11-28T14:09:20.162Z,31.15
2022-11-28T14:11:50.293Z,39.42
2022-11-28T14:14:24.853Z,33.72
2022-11-28T14:20:07.883Z,34.00
2022-11-28T14:22:44.731Z,33.65
2022-11-28T14:25:22.751Z,31.67
2022-11-28T14:27:54.917Z,31.73
2022-11-28T14:30:38.783Z,35.00
2022-11-28T14:33:20.729Z,33.63
2022-11-28T14:35:51.408Z,36.20
2022-11-28T14:38:35.631Z,31.30
2022-11-28T14:41:09.054Z,36.80
2022-11-28T14:43:42.744Z,23.35
2022-11-28T14:46:32.049Z,33.17
2022-11-28T14:48:59.539Z,38.70
2022-11-28T14:51:48.098Z,35.00
2022-11-28T14:54:37.529Z,42.92
2022-11-28T14:57:15.805Z,35.95
2022-11-28T14:59:43.619Z,35.72
2022-11-28T15:02:11.743Z,37.67
2022-11-28T15:05:00.066Z,35.88
2022-11-28T15:07:55.102Z,39.88
2022-11-28T15:10:28.541Z,39.90
2022-11-28T15:13:15.672Z,37.50
2022-11-28T15:15:51.501Z,41.05
2022-11-28T15:18:21.291Z,38.22
2022-11-28T15:20:55.542Z,36.97
2022-11-28T15:23:31.188Z,38.95
2022-11-28T15:26:00.104Z,38.13
2022-11-28T15:28:29.318Z,35.45
2022-11-28T15:31:00.604Z,37.55
2022-11-28T15:33:29.899Z,39.33
2022-11-28T15:36:00.592Z,38.67
2022-11-28T15:38:31.047Z,44.72
2022-11-28T15:41:00.518Z,38.17
2022-11-28T15:43:30.727Z,42.17
2022-11-28T15:46:01.484Z,48.65
2022-11-28T15:48:49.292Z,41.95
2022-11-28T15:51:26.961Z,42.63
2022-11-28T15:53:55.044Z,52.50
2022-11-28T15:56:23.102Z,47.55
2022-11-28T15:58:53.382Z,43.25
2022-11-28T16:01:23.139Z,45.50
2022-11-28T16:04:01.104Z,49.65
2022-11-28T16:06:36.064Z,46.17
2022-11-28T16:09:06.759Z,50.22
2022-11-28T16:11:36.044Z,49.10
2022-11-28T16:14:09.794Z,48.53
2022-11-28T16:16:39.183Z,36.58
2022-11-28T16:19:09.047Z,50.13
2022-11-28T16:21:38.318Z,46.97
2022-11-28T16:24:17.961Z,48.25
2022-11-28T16:27:01.859Z,55.25
2022-11-28T16:29:35.184Z,46.20
2022-11-28T16:32:21.816Z,47.53
2022-11-28T16:34:51.875Z,45.72
2022-11-28T16:37:24.183Z,45.35
2022-11-28T16:40:22.919Z,49.47
2022-11-28T16:42:54.954Z,52.10
2022-11-28T16:45:27.520Z,49.42
2022-11-28T16:48:06.576Z,46.28
2022-11-28T16:50:33.839Z,47.13
2022-11-28T16:53:02.584Z,58.38
2022-11-28T16:55:32.047Z,52.67
2022-11-28T16:58:17.153Z,56.10
2022-11-28T17:00:52.610Z,53.20
2022-11-28T17:03:41.215Z,58.58
2022-11-28T17:06:17.130Z,57.97
2022-11-28T17:08:44.828Z,56.92
2022-11-28T17:11:13.191Z,67.43
2022-11-28T17:13:40.778Z,66.25
2022-11-28T17:16:16.680Z,67.72
2022-11-28T17:18:44.473Z,64.97
2022-11-28T17:21:12.967Z,63.78
2022-11-28T17:23:41.405Z,65.28
2022-11-28T17:26:09.525Z,60.88
2022-11-28T17:28:36.838Z,64.70
2022-11-28T17:31:03.923Z,71.05
2022-11-28T17:33:31.164Z,67.68
2022-11-28T17:36:00.389Z,65.22
2022-11-28T17:38:27.587Z,60.58
2022-11-28T17:40:54.670Z,73.05
2022-11-28T17:43:22.390Z,63.33
2022-11-28T17:45:50.815Z,65.25
2022-11-28T17:48:18.791Z,64.50
2022-11-28T17:50:48.619Z,63.53
2022-11-28T17:53:19.247Z,65.68
2022-11-28T17:55:48.603Z,71.35
2022-11-28T17:58:21.095Z,68.03
2022-11-28T18:00:49.505Z,65.80
2022-11-28T18:03:18.069Z,70.35
2022-11-28T18:05:47.574Z,66.15
2022-11-28T18:08:21.775Z,65.82
2022-11-28T18:13:17.807Z,68.97
2022-11-28T18:15:47.250Z,67.35
2022-11-28T18:18:15.923Z,64.05
2022-11-28T18:20:43.358Z,65.28
2022-11-28T18:23:12.602Z,67.40
2022-11-28T18:25:43.273Z,69.15
2022-11-28T18:28:18.414Z,68.38
2022-11-28T18:30:48.142Z,71.93
2022-11-28T18:33:16.519Z,74.45
2022-11-28T18:35:43.798Z,75.28
2022-11-28T18:38:11.978Z,69.15
2022-11-28T18:40:39.503Z,69.22
2022-11-28T18:43:06.767Z,68.80
2022-11-28T18:45:34.922Z,70.57
2022-11-28T18:48:03.000Z,71.45
2022-11-28T18:50:30.776Z,70.03
2022-11-28T18:52:58.204Z,73.07
2022-11-28T18:55:25.349Z,76.68
2022-11-28T18:57:52.606Z,75.38
2022-11-28T19:00:20.633Z,73.22
2022-11-28T19:02:48.929Z,74.30
2022-11-28T19:05:16.007Z,74.13
2022-11-28T19:07:43.435Z,70.78
2022-11-28T19:10:10.741Z,72.03
2022-11-28T19:12:37.967Z,74.93
2022-11-28T19:15:06.289Z,73.80
2022-11-28T19:17:34.499Z,78.45
2022-11-28T19:20:02.821Z,73.07
2022-11-28T19:22:30.099Z,78.32
2022-11-28T19:24:57.918Z,70.00
2022-11-28T19:27:26.020Z,73.82
2022-11-28T19:29:53.805Z,78.80
2022-11-28T19:32:21.274Z,72.13
2022-11-28T19:34:52.346Z,78.38
2022-11-28T19:37:19.726Z,79.88
2022-11-28T19:39:47.084Z,77.03
2022-11-28T19:42:16.346Z,77.03
2022-11-28T19:44:43.919Z,72.93
2022-11-28T19:47:12.889Z,84.00
2022-11-28T19:49:40.147Z,76.05
2022-11-28T19:52:07.535Z,83.60
2022-11-28T19:54:35.164Z,86.13
2022-11-28T19:57:02.422Z,81.43
2022-11-28T19:59:31.395Z,79.75
2022-11-28T20:01:59.009Z,85.80
2022-11-28T20:04:26.331Z,87.18
2022-11-28T20:06:53.608Z,84.72
2022-11-28T20:09:20.739Z,85.57
2022-11-28T20:11:48.557Z,88.70
2022-11-28T20:14:18.365Z,83.93
2022-11-28T20:16:46.556Z,85.70
2022-11-28T20:19:15.703Z,76.45
2022-11-28T20:21:46.104Z,90.03
2022-11-28T20:24:14.816Z,86.78
2022-11-28T20:26:43.989Z,80.95
2022-11-28T20:29:15.047Z,85.35
2022-11-28T20:31:46.504Z,83.57
2022-11-28T20:34:16.851Z,71.47
2022-11-28T20:36:44.353Z,81.85
2022-11-28T20:39:12.830Z,86.22
2022-11-28T20:41:40.008Z,84.63
2022-11-28T20:44:07.526Z,89.10
2022-11-28T20:46:35.831Z,83.15
2022-11-28T20:49:05.335Z,87.90
2022-11-28T20:51:34.497Z,85.15
2022-11-28T20:54:02.716Z,82.30
2022-11-28T20:56:31.893Z,83.70
2022-11-28T20:59:00.825Z,87.72
2022-11-28T21:01:34.570Z,84.03
2022-11-28T21:04:03.669Z,65.33
2022-11-28T21:06:30.853Z,82.90
2022-11-28T21:08:58.885Z,83.30
2022-11-28T21:14:15.594Z,84.70
2022-11-28T21:16:44.026Z,81.88
2022-11-28T21:19:12.786Z,88.43
2022-11-28T21:21:40.919Z,78.18
2022-11-28T21:24:12.153Z,84.93
2022-11-28T21:26:44.213Z,82.80
2022-11-28T21:29:15.076Z,85.43
2022-11-28T21:31:44.331Z,84.75
2022-11-28T21:34:14.643Z,83.93
2022-11-28T21:36:42.537Z,83.57
2022-11-28T21:39:14.240Z,90.13
2022-11-28T21:41:41.288Z,89.25
2022-11-28T21:44:09.125Z,91.18
2022-11-28T21:46:36.235Z,87.15
2022-11-28T21:49:03.477Z,93.25
2022-11-28T21:51:30.662Z,90.97
2022-11-28T21:53:58.205Z,89.05
2022-11-28T21:56:26.126Z,86.72
2022-11-28T21:58:54.280Z,90.38
2022-11-28T22:01:21.787Z,87.75
2022-11-28T22:03:49.433Z,86.88
2022-11-28T22:06:21.128Z,93.75
2022-11-28T22:08:49.807Z,90.45
2022-11-28T22:11:17.599Z,86.03
2022-11-28T22:13:46.108Z,94.18
2022-11-28T22:16:29.829Z,95.78
2022-11-28T22:19:00.870Z,90.82
2022-11-28T22:21:51.506Z,90.68
2022-11-28T22:24:15.529Z,92.97
2022-11-28T22:26:44.468Z,89.20
2022-11-28T22:29:12.898Z,90.75
2022-11-28T22:31:40.633Z,95.65
2022-11-28T22:34:09.789Z,97.22
2022-11-28T22:36:37.663Z,91.70
2022-11-28T22:39:06.221Z,91.15
2022-11-28T22:41:33.594Z,98.90
2022-11-28T22:44:03.720Z,97.68
2022-11-28T22:46:31.735Z,104.68
2022-11-28T22:49:00.826Z,92.18
2022-11-28T22:51:29.151Z,96.70
2022-11-28T22:53:58.588Z,102.88
2022-11-28T22:56:28.400Z,98.65
2022-11-28T22:58:57.154Z,98.35
2022-11-28T23:01:27.637Z,91.30
2022-11-28T23:03:56.626Z,102.45
2022-11-28T23:06:27.107Z,97.70
2022-11-28T23:08:56.244Z,101.00
2022-11-28T23:11:28.123Z,94.35
2022-11-28T23:13:56.348Z,94.30
2022-11-28T23:16:25.084Z,95.97
2022-11-28T23:18:55.424Z,89.05
2022-11-28T23:21:24.823Z,97.93
2022-11-28T23:23:51.916Z,91.35
2022-11-28T23:26:21.973Z,103.75
2022-11-28T23:28:50.471Z,97.35
2022-11-28T23:31:21.622Z,85.78
2022-11-28T23:33:49.121Z,93.93
2022-11-28T23:36:19.920Z,94.88
2022-11-28T23:38:49.376Z,95.97
2022-11-28T23:41:16.916Z,93.10
2022-11-28T23:43:44.335Z,94.32
2022-11-28T23:46:12.356Z,88.93
2022-11-28T23:48:40.400Z,95.85
2022-11-28T23:51:07.612Z,95.80
2022-11-28T23:53:36.095Z,91.00
2022-11-28T23:56:04.887Z,94.03
2022-11-28T23:58:32.189Z,87.70
